Augusta, Arkansas
Current Conditions -  °F | °C
As of 5:56 PM on Wednesday 17 Dec 2014 (Local Time) from KSRC Reporting Station
Light Rain Light Rain  
Wind Chill: 33°   Ceiling: 8000
Heat Index: 38°   Visibility: 10mi
Dew Point: 33°   Wind: 7mph
Humidity: 83%   Direction: 70°ENE
Pressure: 30.27"   Gusts: NA
Location:  35.28°N, 91.37°W
Report Text: KSRC 172356Z AUTO 07006KT 10SM -RA FEW060 BKN080 OVC090 03/01 A3027 RMK AO2 SLP259 P0001 60001 T00330006 10044 20028 55006 TSNO
Loading
Personal Weather Stations






























Interactive Weather Map New forecast layout! Learn more

10-Day Weather Forecast

Advertisements
Track Severe Weather on mobile